createdAt,value
2019-02-18T00:02:25.227Z,97.90
2019-02-18T00:06:30.650Z,98.70
2019-02-18T00:10:36.437Z,98.30
2019-02-18T00:14:42.256Z,99.00
2019-02-18T00:18:47.713Z,98.70
2019-02-18T00:22:53.532Z,98.70
2019-02-18T00:26:58.907Z,98.50
2019-02-18T00:31:04.269Z,98.80
2019-02-18T00:35:09.695Z,99.00
2019-02-18T00:39:15.227Z,99.20
2019-02-18T00:43:20.611Z,98.70
2019-02-18T00:47:26.070Z,99.00
2019-02-18T00:51:31.333Z,98.60
2019-02-18T00:55:36.764Z,98.10
2019-02-18T00:59:42.189Z,98.20
2019-02-18T01:03:47.643Z,98.60
2019-02-18T01:07:53.047Z,97.60
2019-02-18T01:11:58.929Z,97.40
2019-02-18T01:16:04.366Z,97.00
2019-02-18T01:20:11.155Z,97.00
2019-02-18T01:24:16.524Z,96.90
2019-02-18T01:28:21.988Z,96.90
2019-02-18T01:32:27.333Z,97.20
2019-02-18T01:36:32.717Z,97.30
2019-02-18T01:40:38.091Z,96.90
2019-02-18T01:44:43.480Z,96.40
2019-02-18T01:48:48.868Z,96.10
2019-02-18T01:52:54.203Z,96.40
2019-02-18T01:57:00.273Z,97.30
2019-02-18T02:01:07.613Z,97.50
2019-02-18T02:05:14.953Z,96.70
2019-02-18T02:09:20.381Z,97.50
2019-02-18T02:13:37.211Z,97.70
2019-02-18T02:17:42.626Z,97.20
2019-02-18T02:21:48.006Z,97.40
2019-02-18T02:25:53.339Z,98.00
2019-02-18T02:29:59.162Z,98.20
2019-02-18T02:34:04.591Z,98.40
2019-02-18T02:38:10.020Z,98.30
2019-02-18T02:42:15.729Z,97.40
2019-02-18T02:46:21.058Z,97.60
2019-02-18T02:50:26.501Z,97.90
2019-02-18T02:54:32.019Z,98.10
2019-02-18T02:58:37.461Z,98.60
2019-02-18T03:02:42.944Z,99.10
2019-02-18T03:06:48.373Z,98.70
2019-02-18T03:10:53.977Z,99.10
2019-02-18T03:14:59.332Z,99.20
2019-02-18T03:19:04.673Z,99.10
2019-02-18T03:23:10.048Z,99.20
2019-02-18T03:27:15.403Z,98.90
2019-02-18T03:31:25.745Z,99.40
2019-02-18T03:35:31.180Z,99.60
2019-02-18T03:39:36.387Z,99.30
2019-02-18T03:43:42.002Z,99.40
2019-02-18T03:47:47.445Z,99.30
2019-02-18T03:51:53.077Z,99.00
2019-02-18T03:55:58.618Z,99.40
2019-02-18T04:00:04.855Z,99.20
2019-02-18T04:04:10.340Z,99.30
2019-02-18T04:08:16.245Z,99.30
2019-02-18T04:12:21.595Z,99.40
2019-02-18T04:16:27.324Z,99.40
2019-02-18T04:20:32.984Z,99.90
2019-02-18T04:24:38.779Z,99.80
2019-02-18T04:28:44.123Z,99.90
2019-02-18T04:32:49.513Z,99.90
2019-02-18T04:36:54.798Z,99.90
2019-02-18T04:41:00.849Z,99.90
2019-02-18T04:45:07.052Z,99.90
2019-02-18T04:49:12.643Z,99.90
2019-02-18T04:53:17.991Z,99.90
2019-02-18T04:57:23.381Z,99.90
2019-02-18T05:01:28.807Z,99.90
2019-02-18T05:05:34.088Z,99.90
2019-02-18T05:09:40.210Z,99.90
2019-02-18T05:14:04.930Z,99.90
2019-02-18T05:18:10.281Z,99.90
2019-02-18T05:22:15.710Z,99.90
2019-02-18T05:26:21.151Z,99.90
2019-02-18T05:30:26.459Z,99.90
2019-02-18T05:34:31.645Z,99.90
2019-02-18T05:38:36.896Z,99.90
2019-02-18T05:42:42.337Z,99.90
2019-02-18T05:46:47.600Z,99.90
2019-02-18T05:50:52.939Z,99.90
2019-02-18T05:54:58.217Z,99.90
2019-02-18T05:59:03.622Z,99.90
2019-02-18T06:03:09.053Z,99.90
2019-02-18T06:07:14.831Z,99.90
2019-02-18T06:11:20.345Z,99.90
2019-02-18T06:15:25.588Z,99.90
2019-02-18T06:19:31.389Z,99.90
2019-02-18T06:23:36.953Z,99.90
2019-02-18T06:27:42.308Z,99.90
2019-02-18T06:31:47.474Z,99.90
2019-02-18T06:35:53.368Z,99.90
2019-02-18T06:39:58.735Z,99.90
2019-02-18T06:44:04.090Z,99.90
2019-02-18T06:48:23.497Z,99.90
2019-02-18T06:52:29.150Z,99.90
2019-02-18T06:57:02.762Z,99.90
2019-02-18T07:01:19.008Z,99.90
2019-02-18T07:05:33.607Z,99.90
2019-02-18T07:09:51.708Z,99.90
2019-02-18T07:13:57.198Z,99.90
2019-02-18T07:18:02.622Z,99.90
2019-02-18T07:22:08.434Z,99.90
2019-02-18T07:26:13.831Z,99.90
2019-02-18T07:30:19.765Z,99.60
2019-02-18T07:34:25.534Z,99.90
2019-02-18T07:38:31.071Z,99.90
2019-02-18T07:42:36.337Z,99.40
2019-02-18T07:46:42.312Z,99.10
2019-02-18T07:50:47.727Z,98.80
2019-02-18T07:54:53.399Z,98.10
2019-02-18T07:58:58.752Z,98.20
2019-02-18T08:03:04.033Z,97.40
2019-02-18T08:07:09.638Z,97.40
2019-02-18T08:11:14.940Z,96.70
2019-02-18T08:15:20.381Z,96.10
2019-02-18T08:19:25.744Z,96.00
2019-02-18T08:23:31.098Z,95.40
2019-02-18T08:27:36.768Z,94.60
2019-02-18T08:31:42.204Z,94.70
2019-02-18T08:35:47.562Z,93.20
2019-02-18T08:39:52.922Z,93.40
2019-02-18T08:43:58.315Z,93.70
2019-02-18T08:48:04.181Z,92.70
2019-02-18T08:52:09.814Z,93.20
2019-02-18T08:56:15.269Z,90.70
2019-02-18T09:00:21.168Z,91.70
2019-02-18T09:04:28.155Z,91.10
2019-02-18T09:08:34.066Z,90.50
2019-02-18T09:12:39.974Z,90.10
2019-02-18T09:16:45.327Z,89.00
2019-02-18T09:20:50.652Z,89.40
2019-02-18T09:25:07.564Z,88.20
2019-02-18T09:29:12.983Z,89.50
2019-02-18T09:33:18.346Z,87.00
2019-02-18T09:37:24.074Z,83.30
2019-02-18T09:41:29.571Z,84.90
2019-02-18T09:45:35.076Z,84.40
2019-02-18T09:49:40.732Z,83.60
2019-02-18T09:53:46.004Z,82.40
2019-02-18T09:57:51.727Z,79.20
2019-02-18T10:01:57.105Z,81.20
2019-02-18T10:06:02.612Z,82.60
2019-02-18T10:10:08.380Z,80.80
2019-02-18T10:14:13.792Z,78.40
2019-02-18T10:18:19.223Z,77.00
2019-02-18T10:22:24.573Z,74.80
2019-02-18T10:26:30.021Z,74.30
2019-02-18T10:30:35.297Z,76.90
2019-02-18T10:34:40.831Z,74.90
2019-02-18T10:38:46.187Z,74.60
2019-02-18T10:42:51.633Z,75.90
2019-02-18T10:46:57.096Z,71.70
2019-02-18T10:51:02.850Z,68.50
2019-02-18T10:55:08.968Z,75.30
2019-02-18T10:59:14.793Z,69.70
2019-02-18T11:03:20.672Z,67.00
2019-02-18T11:07:26.137Z,67.00
2019-02-18T11:11:31.551Z,67.70
2019-02-18T11:15:36.919Z,65.80
2019-02-18T11:19:42.347Z,68.70
2019-02-18T11:23:47.737Z,66.70
2019-02-18T11:27:53.107Z,65.40
2019-02-18T11:32:00.429Z,65.40
2019-02-18T11:36:05.881Z,64.80
2019-02-18T11:40:13.945Z,61.10
2019-02-18T11:44:19.655Z,60.80
2019-02-18T11:48:25.003Z,61.00
2019-02-18T11:52:30.725Z,59.30
2019-02-18T11:56:36.518Z,58.90
2019-02-18T12:00:42.042Z,58.20
2019-02-18T12:04:47.410Z,58.20
2019-02-18T12:08:52.836Z,55.40
2019-02-18T12:12:58.651Z,55.40
2019-02-18T12:17:04.081Z,53.20
2019-02-18T12:21:09.545Z,51.90
2019-02-18T12:25:15.113Z,52.40
2019-02-18T12:29:26.133Z,48.60
2019-02-18T12:33:28.616Z,50.60
2019-02-18T12:37:34.376Z,51.70
2019-02-18T12:41:48.324Z,46.10
2019-02-18T12:45:47.032Z,50.00
2019-02-18T12:49:52.913Z,44.20
2019-02-18T12:54:04.936Z,45.00
2019-02-18T12:58:06.105Z,40.00
2019-02-18T13:02:11.546Z,38.30
2019-02-18T13:06:17.004Z,39.90
2019-02-18T13:10:22.507Z,40.30
2019-02-18T13:14:27.942Z,42.90
2019-02-18T13:18:33.370Z,40.60
2019-02-18T13:22:38.823Z,38.90
2019-02-18T13:26:44.274Z,39.60
2019-02-18T13:30:49.640Z,39.70
2019-02-18T13:34:55.057Z,37.70
2019-02-18T13:39:00.496Z,39.40
2019-02-18T13:43:06.229Z,41.50
2019-02-18T13:47:11.631Z,41.70
2019-02-18T13:51:24.061Z,44.80
2019-02-18T13:55:24.553Z,42.70
2019-02-18T13:59:29.998Z,44.70
2019-02-18T14:03:35.663Z,46.60
2019-02-18T14:07:41.029Z,47.10
2019-02-18T14:11:46.806Z,47.80
2019-02-18T14:15:52.244Z,48.40
2019-02-18T14:19:58.185Z,48.70
2019-02-18T14:24:03.555Z,48.30
2019-02-18T14:28:08.907Z,47.00
2019-02-18T14:32:14.576Z,47.60
2019-02-18T14:36:20.012Z,48.40
2019-02-18T14:40:25.841Z,50.50
2019-02-18T14:44:31.274Z,50.20
2019-02-18T14:48:36.888Z,50.10
2019-02-18T14:52:42.615Z,50.20
2019-02-18T14:56:48.047Z,48.50
2019-02-18T15:00:53.667Z,47.20
2019-02-18T15:04:59.074Z,45.60
2019-02-18T15:09:05.636Z,45.20
2019-02-18T15:13:11.063Z,47.70
2019-02-18T15:17:16.522Z,43.90
2019-02-18T15:21:21.717Z,46.30
2019-02-18T15:25:27.267Z,46.30
2019-02-18T15:29:32.695Z,47.80
2019-02-18T15:33:38.165Z,47.20
2019-02-18T15:37:43.953Z,46.70
2019-02-18T15:41:49.440Z,46.00
2019-02-18T15:45:55.611Z,45.80
2019-02-18T15:50:01.280Z,44.30
2019-02-18T15:54:08.115Z,50.60
2019-02-18T15:58:13.546Z,48.30
2019-02-18T16:02:19.074Z,48.90
2019-02-18T16:06:24.875Z,49.30
2019-02-18T16:10:30.701Z,56.60
2019-02-18T16:14:36.229Z,57.40
2019-02-18T16:18:42.022Z,61.70
2019-02-18T16:22:47.659Z,61.50
2019-02-18T16:26:53.521Z,65.60
2019-02-18T16:30:59.132Z,67.10
2019-02-18T16:35:04.844Z,67.60
2019-02-18T16:39:10.990Z,58.50
2019-02-18T16:43:16.445Z,59.50
2019-02-18T16:47:21.898Z,54.60
2019-02-18T16:51:27.490Z,57.10
2019-02-18T16:55:32.874Z,54.90
2019-02-18T16:59:38.122Z,57.40
2019-02-18T17:03:43.559Z,56.80
2019-02-18T17:07:48.999Z,58.50
2019-02-18T17:11:54.440Z,60.50
2019-02-18T17:15:59.719Z,62.90
2019-02-18T17:20:05.891Z,66.20
2019-02-18T17:24:11.589Z,62.80
2019-02-18T17:28:17.091Z,68.80
2019-02-18T17:32:22.559Z,65.80
2019-02-18T17:36:27.932Z,70.70
2019-02-18T17:40:34.104Z,70.20
2019-02-18T17:44:41.718Z,71.50
2019-02-18T17:48:47.342Z,73.00
2019-02-18T17:52:53.166Z,73.70
2019-02-18T17:56:59.194Z,77.40
2019-02-18T18:01:04.616Z,77.10
2019-02-18T18:05:10.537Z,80.70
2019-02-18T18:09:16.222Z,80.20
2019-02-18T18:13:25.094Z,80.00
2019-02-18T18:17:29.181Z,80.30
2019-02-18T18:21:35.197Z,81.90
2019-02-18T18:25:40.904Z,82.00
2019-02-18T18:29:46.523Z,83.40
2019-02-18T18:33:52.268Z,84.10
2019-02-18T18:37:57.823Z,85.00
2019-02-18T18:42:03.381Z,85.30
2019-02-18T18:46:08.927Z,84.40
2019-02-18T18:50:16.964Z,83.20
2019-02-18T18:54:22.720Z,80.70
2019-02-18T18:58:28.147Z,81.60
2019-02-18T19:02:33.544Z,82.20
2019-02-18T19:06:38.905Z,83.10
2019-02-18T19:10:44.311Z,83.60
2019-02-18T19:14:49.761Z,85.40
2019-02-18T19:18:55.197Z,84.90
2019-02-18T19:23:01.657Z,85.90
2019-02-18T19:27:07.070Z,87.50
2019-02-18T19:31:12.604Z,88.50
2019-02-18T19:35:18.375Z,90.10
2019-02-18T19:39:23.806Z,90.70
2019-02-18T19:43:29.187Z,90.80
2019-02-18T19:47:35.032Z,91.20
2019-02-18T19:51:40.503Z,91.60
2019-02-18T19:55:46.061Z,91.90
2019-02-18T19:59:51.530Z,92.00
2019-02-18T20:03:57.361Z,92.20
2019-02-18T20:08:02.812Z,92.00
2019-02-18T20:12:08.221Z,92.40
2019-02-18T20:16:13.643Z,92.40
2019-02-18T20:20:19.021Z,92.40
2019-02-18T20:24:24.447Z,92.60
2019-02-18T20:28:29.877Z,92.90
2019-02-18T20:32:35.356Z,93.00
2019-02-18T20:36:41.891Z,92.90
2019-02-18T20:40:47.883Z,92.90
2019-02-18T20:44:53.226Z,93.00
2019-02-18T20:48:58.684Z,92.90
2019-02-18T20:53:04.122Z,93.20
2019-02-18T20:57:09.508Z,93.30
2019-02-18T21:01:14.867Z,93.70
2019-02-18T21:05:20.665Z,94.20
2019-02-18T21:09:26.132Z,94.50
2019-02-18T21:13:31.610Z,94.70
2019-02-18T21:17:37.389Z,95.00
2019-02-18T21:21:43.159Z,95.30
2019-02-18T21:25:48.512Z,95.20
2019-02-18T21:29:54.017Z,95.30
2019-02-18T21:33:59.485Z,94.90
2019-02-18T21:38:04.965Z,95.20
2019-02-18T21:42:12.432Z,95.50
2019-02-18T21:46:17.881Z,95.60
2019-02-18T21:50:23.341Z,96.00
2019-02-18T21:54:28.805Z,96.00
2019-02-18T21:58:34.501Z,95.90
2019-02-18T22:02:40.171Z,96.00
2019-02-18T22:06:45.619Z,96.20
2019-02-18T22:10:51.050Z,96.40
2019-02-18T22:14:56.867Z,96.70
2019-02-18T22:19:02.196Z,97.10
2019-02-18T22:23:07.655Z,97.30
2019-02-18T22:27:13.381Z,97.80
2019-02-18T22:31:18.834Z,97.70
2019-02-18T22:35:24.208Z,97.80
2019-02-18T22:39:29.555Z,97.80
2019-02-18T22:43:34.982Z,97.60
2019-02-18T22:47:40.677Z,98.40
2019-02-18T22:51:46.131Z,97.90
2019-02-18T22:55:51.497Z,98.30
2019-02-18T22:59:57.201Z,97.70
2019-02-18T23:04:02.706Z,98.50
2019-02-18T23:08:08.143Z,98.00
2019-02-18T23:12:13.478Z,97.90
2019-02-18T23:16:19.249Z,98.30
2019-02-18T23:20:24.670Z,98.30
2019-02-18T23:24:30.461Z,98.40
2019-02-18T23:28:35.817Z,98.90
2019-02-18T23:32:41.440Z,99.40
2019-02-18T23:36:47.241Z,99.00
2019-02-18T23:40:52.597Z,99.20
2019-02-18T23:44:59.481Z,99.10
2019-02-18T23:49:05.101Z,99.30
2019-02-18T23:53:10.887Z,99.20
2019-02-18T23:57:16.067Z,99.00
